createdAt,value
2019-04-21T00:00:39.711Z,60.20
2019-04-21T00:01:47.438Z,54.20
2019-04-21T00:02:50.365Z,51.20
2019-04-21T00:04:02.505Z,51.20
2019-04-21T00:05:20.018Z,50.00
2019-04-21T00:06:25.401Z,54.60
2019-04-21T00:07:28.111Z,51.60
2019-04-21T00:09:40.031Z,43.80
2019-04-21T00:10:46.394Z,53.40
2019-04-21T00:11:47.225Z,53.20
2019-04-21T00:12:47.467Z,51.80
2019-04-21T00:13:46.711Z,54.60
2019-04-21T00:14:51.250Z,53.80
2019-04-21T00:15:48.944Z,52.60
2019-04-21T00:16:55.542Z,50.60
2019-04-21T00:17:58.866Z,54.20
2019-04-21T00:19:09.923Z,53.20
2019-04-21T00:20:19.181Z,55.40
2019-04-21T00:21:24.446Z,54.60
2019-04-21T00:22:31.559Z,54.40
2019-04-21T00:23:47.340Z,56.20
2019-04-21T00:24:41.228Z,52.20
2019-04-21T00:25:46.076Z,55.20
2019-04-21T00:26:57.679Z,54.40
2019-04-21T00:27:58.951Z,54.40
2019-04-21T00:29:09.408Z,52.40
2019-04-21T00:30:12.172Z,49.00
2019-04-21T00:31:12.401Z,50.40
2019-04-21T00:32:16.555Z,48.00
2019-04-21T00:33:10.297Z,50.20
2019-04-21T00:34:09.075Z,50.20
2019-04-21T00:35:17.594Z,52.80
2019-04-21T00:36:24.374Z,49.00
2019-04-21T00:37:36.553Z,48.20
2019-04-21T00:39:03.002Z,49.40
2019-04-21T00:39:55.724Z,51.00
2019-04-21T00:40:56.510Z,47.40
2019-04-21T00:41:59.672Z,46.60
2019-04-21T00:43:04.624Z,47.40
2019-04-21T00:44:00.735Z,50.40
2019-04-21T00:45:07.884Z,46.80
2019-04-21T00:46:06.741Z,44.00
2019-04-21T00:47:27.847Z,46.00
2019-04-21T00:48:30.434Z,44.20
2019-04-21T00:49:26.951Z,50.20
2019-04-21T00:50:40.743Z,44.00
2019-04-21T00:51:56.837Z,66.00
2019-04-21T00:54:12.665Z,46.80
2019-04-21T00:55:20.372Z,46.60
2019-04-21T00:56:15.328Z,43.80
2019-04-21T00:57:31.132Z,42.40
2019-04-21T00:58:28.349Z,39.20
2019-04-21T00:59:31.862Z,45.40
2019-04-21T01:00:36.355Z,40.40
2019-04-21T01:01:37.942Z,42.00
2019-04-21T01:03:55.042Z,38.40
2019-04-21T01:04:49.543Z,43.00
2019-04-21T01:05:57.636Z,39.80
2019-04-21T01:07:01.639Z,36.20
2019-04-21T01:08:04.960Z,46.60
2019-04-21T01:09:08.421Z,41.20
2019-04-21T01:10:06.388Z,42.40
2019-04-21T01:11:17.891Z,40.20
2019-04-21T01:12:19.317Z,41.60
2019-04-21T01:13:45.562Z,41.20
2019-04-21T01:14:34.806Z,41.60
2019-04-21T01:15:44.247Z,46.20
2019-04-21T01:16:48.561Z,41.00
2019-04-21T01:17:46.291Z,41.00
2019-04-21T01:18:49.428Z,44.20
2019-04-21T01:19:46.867Z,37.00
2019-04-21T01:20:36.313Z,47.60
2019-04-21T01:21:38.554Z,35.60
2019-04-21T01:22:41.479Z,35.60
2019-04-21T01:23:44.559Z,36.40
2019-04-21T01:24:56.990Z,40.60
2019-04-21T01:26:06.859Z,42.00
2019-04-21T01:27:06.546Z,40.00
2019-04-21T01:28:21.375Z,39.20
2019-04-21T01:29:19.115Z,39.80
2019-04-21T01:30:30.628Z,42.20
2019-04-21T01:31:34.894Z,41.20
2019-04-21T01:32:42.659Z,41.60
2019-04-21T01:33:44.892Z,45.00
2019-04-21T01:34:45.319Z,39.80
2019-04-21T01:35:55.265Z,44.00
2019-04-21T01:36:54.161Z,38.80
2019-04-21T01:38:04.713Z,45.00
2019-04-21T01:39:13.699Z,49.40
2019-04-21T01:40:16.258Z,43.20
2019-04-21T01:41:19.819Z,45.40
2019-04-21T01:42:21.412Z,49.80
2019-04-21T01:43:23.457Z,46.00
2019-04-21T01:44:38.795Z,50.00
2019-04-21T01:45:31.684Z,46.00
2019-04-21T01:46:33.935Z,46.40
2019-04-21T01:47:40.895Z,46.80
2019-04-21T01:48:42.893Z,43.60
2019-04-21T01:49:43.245Z,44.60
2019-04-21T01:50:53.864Z,40.40
2019-04-21T01:52:20.552Z,37.60
2019-04-21T01:53:24.918Z,40.40
2019-04-21T01:54:53.463Z,37.20
2019-04-21T01:55:48.570Z,42.00
2019-04-21T01:57:03.379Z,43.40
2019-04-21T01:58:07.003Z,48.60
2019-04-21T01:59:03.793Z,45.80
2019-04-21T02:00:13.631Z,43.40
2019-04-21T02:01:33.650Z,42.20
2019-04-21T02:02:40.417Z,41.60
2019-04-21T02:04:48.409Z,40.20
2019-04-21T02:05:51.998Z,39.20
2019-04-21T02:06:55.046Z,37.00
2019-04-21T02:07:55.204Z,44.00
2019-04-21T02:08:58.076Z,42.20
2019-04-21T02:10:11.468Z,42.80
2019-04-21T02:11:15.633Z,42.80
2019-04-21T02:12:13.454Z,37.80
2019-04-21T02:13:12.050Z,42.20
2019-04-21T02:14:22.976Z,36.80
2019-04-21T02:15:33.021Z,34.80
2019-04-21T02:16:39.192Z,36.20
2019-04-21T02:17:35.704Z,38.00
2019-04-21T02:18:39.568Z,41.40
2019-04-21T02:19:43.363Z,38.40
2019-04-21T02:20:43.470Z,39.20
2019-04-21T02:21:49.183Z,39.00
2019-04-21T02:23:12.923Z,38.40
2019-04-21T02:25:15.153Z,45.20
2019-04-21T02:26:16.462Z,38.60
2019-04-21T02:27:19.179Z,40.80
2019-04-21T02:28:29.866Z,43.60
2019-04-21T02:29:29.135Z,41.80
2019-04-21T02:30:43.084Z,41.60
2019-04-21T02:32:06.595Z,37.20
2019-04-21T02:36:15.429Z,38.40
2019-04-21T02:37:27.716Z,32.40
2019-04-21T02:38:11.910Z,31.40
2019-04-21T02:39:20.993Z,40.00
2019-04-21T02:40:21.561Z,38.60
2019-04-21T02:41:24.146Z,35.60
2019-04-21T02:42:32.950Z,33.40
2019-04-21T02:43:25.806Z,34.80
2019-04-21T02:45:43.316Z,30.00
2019-04-21T02:46:42.328Z,37.20
2019-04-21T02:51:04.730Z,33.20
2019-04-21T02:52:13.819Z,36.40
2019-04-21T02:54:28.787Z,31.20
2019-04-21T02:54:45.891Z,29.20
2019-04-21T02:57:39.625Z,33.40
2019-04-21T02:58:44.421Z,35.40
2019-04-21T02:59:51.739Z,36.40
2019-04-21T03:01:06.981Z,32.00
2019-04-21T03:02:16.225Z,30.60
2019-04-21T03:03:48.361Z,44.40
2019-04-21T03:07:03.743Z,36.80
2019-04-21T03:08:25.911Z,29.80
2019-04-21T03:09:09.224Z,31.80
2019-04-21T03:10:12.110Z,32.60
2019-04-21T03:11:12.337Z,31.40
2019-04-21T03:13:31.459Z,43.00
2019-04-21T03:14:40.927Z,36.60
2019-04-21T03:15:47.401Z,36.00
2019-04-21T03:16:42.601Z,34.40
2019-04-21T03:18:50.377Z,41.40
2019-04-21T03:21:00.200Z,42.60
2019-04-21T03:22:05.092Z,32.80
2019-04-21T03:23:11.273Z,38.20
2019-04-21T03:24:13.375Z,33.00
2019-04-21T03:25:25.175Z,31.80
2019-04-21T03:27:30.810Z,38.20
2019-04-21T03:28:29.819Z,37.00
2019-04-21T03:29:38.560Z,31.80
2019-04-21T03:32:05.674Z,38.20
2019-04-21T03:38:14.840Z,33.80
2019-04-21T03:39:07.780Z,36.60
2019-04-21T03:40:15.012Z,30.20
2019-04-21T03:41:22.345Z,34.80
2019-04-21T03:43:28.279Z,33.80
2019-04-21T03:44:37.053Z,38.40
2019-04-21T03:47:50.070Z,32.40
2019-04-21T03:48:53.978Z,33.40
2019-04-21T03:50:05.220Z,34.20
2019-04-21T03:51:04.363Z,36.60
2019-04-21T03:52:15.240Z,36.60
2019-04-21T03:53:10.788Z,33.40
2019-04-21T03:56:53.559Z,30.00
2019-04-21T03:58:05.542Z,34.00
2019-04-21T03:59:01.902Z,30.60
2019-04-21T03:59:45.583Z,28.20
2019-04-21T04:03:35.399Z,34.80
2019-04-21T04:04:37.165Z,35.20
2019-04-21T04:05:49.520Z,31.00
2019-04-21T04:07:04.041Z,25.20
2019-04-21T04:07:59.463Z,29.00
2019-04-21T04:09:03.910Z,36.60
2019-04-21T04:10:03.225Z,29.20
2019-04-21T04:13:14.082Z,31.60
2019-04-21T04:17:25.674Z,38.20
2019-04-21T04:19:40.140Z,38.60
2019-04-21T04:22:06.042Z,33.80
2019-04-21T04:22:58.462Z,36.60
2019-04-21T04:26:09.061Z,31.60
2019-04-21T04:31:30.440Z,30.60
2019-04-21T04:32:28.766Z,31.20
2019-04-21T04:34:41.098Z,24.00
2019-04-21T04:35:58.784Z,30.00
2019-04-21T04:38:03.347Z,29.20
2019-04-21T04:39:26.033Z,27.20
2019-04-21T04:40:21.436Z,31.40
2019-04-21T04:41:42.290Z,35.40
2019-04-21T04:42:41.595Z,31.40
2019-04-21T04:43:37.100Z,32.40
2019-04-21T04:45:52.849Z,33.00
2019-04-21T04:47:01.259Z,34.60
2019-04-21T04:49:05.304Z,33.80
2019-04-21T04:49:59.473Z,31.20
2019-04-21T04:52:28.192Z,30.40
2019-04-21T04:53:26.715Z,31.80
2019-04-21T04:54:37.146Z,31.00
2019-04-21T04:55:26.240Z,32.20
2019-04-21T04:56:33.165Z,26.60
2019-04-21T04:59:15.458Z,30.80
2019-04-21T05:00:58.084Z,32.40
2019-04-21T05:02:55.978Z,31.00
2019-04-21T05:05:14.067Z,31.20
2019-04-21T05:07:36.194Z,32.40
2019-04-21T05:08:45.807Z,31.60
2019-04-21T05:09:39.637Z,30.80
2019-04-21T05:10:48.995Z,34.20
2019-04-21T05:12:43.815Z,34.60
2019-04-21T05:13:58.062Z,30.80
2019-04-21T05:16:01.449Z,35.00
2019-04-21T05:17:11.224Z,29.20
2019-04-21T05:18:05.554Z,37.60
2019-04-21T05:19:18.061Z,34.60
2019-04-21T05:20:17.107Z,35.60
2019-04-21T05:21:30.142Z,32.40
2019-04-21T05:22:22.138Z,36.00
2019-04-21T05:23:24.680Z,34.60
2019-04-21T05:24:23.075Z,35.20
2019-04-21T05:25:26.675Z,30.80
2019-04-21T05:26:28.621Z,38.60
2019-04-21T05:27:43.791Z,37.00
2019-04-21T05:28:41.951Z,31.00
2019-04-21T05:29:58.662Z,29.40
2019-04-21T05:31:25.619Z,36.80
2019-04-21T05:32:36.195Z,36.00
2019-04-21T05:33:44.862Z,33.40
2019-04-21T05:34:50.807Z,29.40
2019-04-21T05:35:56.186Z,28.60
2019-04-21T05:37:07.213Z,29.20
2019-04-21T05:38:10.224Z,25.00
2019-04-21T05:39:14.590Z,38.80
2019-04-21T05:40:22.172Z,41.40
2019-04-21T05:41:20.624Z,41.40
2019-04-21T05:42:28.445Z,40.40
2019-04-21T05:43:39.201Z,39.00
2019-04-21T05:44:56.781Z,42.40
2019-04-21T05:45:51.996Z,37.20
2019-04-21T05:47:07.930Z,40.00
2019-04-21T05:48:15.416Z,34.40
2019-04-21T05:49:20.538Z,30.00
2019-04-21T05:50:19.431Z,32.20
2019-04-21T05:51:20.398Z,33.60
2019-04-21T05:52:22.547Z,31.20
2019-04-21T05:53:37.381Z,29.40
2019-04-21T05:54:44.110Z,26.60
2019-04-21T05:55:46.396Z,36.20
2019-04-21T05:56:45.699Z,31.00
2019-04-21T05:57:45.817Z,29.20
2019-04-21T05:58:50.920Z,35.60
2019-04-21T06:00:09.914Z,31.60
2019-04-21T06:02:18.449Z,28.40
2019-04-21T06:03:16.483Z,32.20
2019-04-21T06:04:29.088Z,30.20
2019-04-21T06:05:35.005Z,31.40
2019-04-21T06:07:33.394Z,33.20
2019-04-21T06:08:37.309Z,34.00
2019-04-21T06:09:51.334Z,32.60
2019-04-21T06:11:59.892Z,31.60
2019-04-21T06:12:59.601Z,29.00
2019-04-21T06:14:14.176Z,30.20
2019-04-21T06:15:12.213Z,22.20
2019-04-21T06:16:07.327Z,25.20
2019-04-21T06:17:19.783Z,24.80
2019-04-21T06:18:27.266Z,26.20
2019-04-21T06:19:30.661Z,30.60
2019-04-21T06:20:28.781Z,30.40
2019-04-21T06:21:37.182Z,27.20
2019-04-21T06:22:36.039Z,32.20
2019-04-21T06:23:42.270Z,36.60
2019-04-21T06:25:16.202Z,33.40
2019-04-21T06:27:59.981Z,30.20
2019-04-21T06:29:02.779Z,32.80
2019-04-21T06:30:12.074Z,26.80
2019-04-21T06:31:22.396Z,27.00
2019-04-21T06:32:30.411Z,23.40
2019-04-21T06:33:27.477Z,23.60
2019-04-21T06:34:43.670Z,25.80
2019-04-21T06:36:21.458Z,24.20
2019-04-21T06:37:16.236Z,23.60
2019-04-21T06:38:04.662Z,24.80
2019-04-21T06:40:24.481Z,24.20
2019-04-21T06:41:27.820Z,22.60
2019-04-21T06:42:18.616Z,22.80
2019-04-21T06:43:38.605Z,22.00
2019-04-21T06:44:33.209Z,23.20
2019-04-21T06:45:41.149Z,27.80
2019-04-21T06:46:43.839Z,25.20
2019-04-21T06:47:53.967Z,26.00
2019-04-21T06:48:57.055Z,29.80
2019-04-21T06:49:53.743Z,24.80
2019-04-21T06:51:03.179Z,21.40
2019-04-21T06:52:19.365Z,24.20
2019-04-21T06:53:11.898Z,23.40
2019-04-21T06:55:19.894Z,27.00
2019-04-21T06:56:24.125Z,28.00
2019-04-21T06:57:28.958Z,25.20
2019-04-21T06:58:32.874Z,24.20
2019-04-21T06:59:34.317Z,23.60
2019-04-21T07:00:35.791Z,22.40
2019-04-21T07:02:51.881Z,25.80
2019-04-21T07:03:58.952Z,25.80
2019-04-21T07:05:15.292Z,27.60
2019-04-21T07:06:08.071Z,30.40
2019-04-21T07:07:06.414Z,26.80
2019-04-21T07:08:29.025Z,21.40
2019-04-21T07:09:25.448Z,22.40
2019-04-21T07:10:26.551Z,19.20
2019-04-21T07:11:25.328Z,22.80
2019-04-21T07:12:37.347Z,24.00
2019-04-21T07:13:41.629Z,26.60
2019-04-21T07:14:43.744Z,23.60
2019-04-21T07:15:50.145Z,22.00
2019-04-21T07:16:57.792Z,28.40
2019-04-21T07:17:58.029Z,25.00
2019-04-21T07:19:14.529Z,21.60
2019-04-21T07:20:15.508Z,22.40
2019-04-21T07:21:14.121Z,22.80
2019-04-21T07:22:19.500Z,27.40
2019-04-21T07:23:26.110Z,26.80
2019-04-21T07:24:29.225Z,21.80
2019-04-21T07:25:32.699Z,20.80
2019-04-21T07:26:37.485Z,24.60
2019-04-21T07:27:44.971Z,26.80
2019-04-21T07:28:49.740Z,22.60
2019-04-21T07:30:59.555Z,18.80
2019-04-21T07:31:59.273Z,23.00
2019-04-21T07:34:12.381Z,22.80
2019-04-21T07:35:08.454Z,22.80
2019-04-21T07:36:24.995Z,24.60
2019-04-21T07:37:20.913Z,27.80
2019-04-21T07:38:22.438Z,24.00
2019-04-21T07:39:30.058Z,20.40
2019-04-21T07:40:28.671Z,21.20
2019-04-21T07:41:31.076Z,23.60
2019-04-21T07:42:38.047Z,27.40
2019-04-21T07:43:37.999Z,22.80
2019-04-21T07:44:39.231Z,22.80
2019-04-21T07:45:49.751Z,30.20
2019-04-21T07:46:49.043Z,23.20
2019-04-21T07:48:08.236Z,24.00
2019-04-21T07:49:12.490Z,26.40
2019-04-21T07:50:28.653Z,25.00
2019-04-21T07:51:49.038Z,22.40
2019-04-21T07:52:55.382Z,24.20
2019-04-21T07:55:12.631Z,21.60
2019-04-21T07:55:46.964Z,22.60
2019-04-21T07:57:05.125Z,25.40
2019-04-21T07:58:13.259Z,22.40
2019-04-21T07:59:23.966Z,22.20
2019-04-21T08:00:29.593Z,18.00
2019-04-21T08:02:30.748Z,20.40
2019-04-21T08:03:33.601Z,18.60
2019-04-21T08:05:47.123Z,23.40
2019-04-21T08:06:46.579Z,16.60
2019-04-21T08:07:59.615Z,18.80
2019-04-21T08:08:57.860Z,16.40
2019-04-21T08:09:57.252Z,16.60
2019-04-21T08:11:02.301Z,21.00
2019-04-21T08:12:12.719Z,16.80
2019-04-21T08:13:18.763Z,20.60
2019-04-21T08:14:25.381Z,16.20
2019-04-21T08:15:41.674Z,16.00
2019-04-21T08:16:31.839Z,17.00
2019-04-21T08:17:30.690Z,15.40
2019-04-21T08:18:39.472Z,16.00
2019-04-21T08:19:39.299Z,15.20
2019-04-21T08:20:45.924Z,14.40
2019-04-21T08:23:02.562Z,16.60
2019-04-21T08:24:00.218Z,20.60
2019-04-21T08:25:03.381Z,15.00
2019-04-21T08:26:07.718Z,16.40
2019-04-21T08:27:18.858Z,17.80
2019-04-21T08:28:21.353Z,17.40
2019-04-21T08:29:42.102Z,15.00
2019-04-21T08:30:30.563Z,22.20
2019-04-21T08:31:38.884Z,14.40
2019-04-21T08:32:46.617Z,13.20
2019-04-21T08:33:46.543Z,17.80
2019-04-21T08:34:54.813Z,15.60
2019-04-21T08:36:52.781Z,14.00
2019-04-21T08:37:54.748Z,18.40
2019-04-21T08:39:07.323Z,13.00
2019-04-21T08:40:09.916Z,17.80
2019-04-21T08:41:12.486Z,14.20
2019-04-21T08:42:18.137Z,13.20
2019-04-21T08:43:27.966Z,17.20
2019-04-21T08:44:35.181Z,13.00
2019-04-21T08:45:36.167Z,13.80
2019-04-21T08:46:39.099Z,15.20
2019-04-21T08:47:39.651Z,13.80
2019-04-21T08:48:52.702Z,12.40
2019-04-21T08:49:47.528Z,14.40
2019-04-21T08:51:06.784Z,16.00
2019-04-21T08:52:21.763Z,13.20
2019-04-21T08:53:03.093Z,13.20
2019-04-21T08:54:09.327Z,13.00
2019-04-21T08:55:12.181Z,14.60
2019-04-21T08:56:27.689Z,15.40
2019-04-21T08:58:02.399Z,14.60
2019-04-21T08:59:03.882Z,11.60
2019-04-21T09:00:16.761Z,13.40
2019-04-21T09:01:23.895Z,12.60
2019-04-21T09:02:40.339Z,13.60
2019-04-21T09:03:55.034Z,12.80
2019-04-21T09:05:00.174Z,13.20
2019-04-21T09:06:09.226Z,15.40
2019-04-21T09:07:18.245Z,15.60
2019-04-21T09:08:10.734Z,14.20
2019-04-21T09:09:16.763Z,12.40
2019-04-21T09:10:17.310Z,14.20
2019-04-21T09:11:16.341Z,14.00
2019-04-21T09:12:29.482Z,13.80
2019-04-21T09:13:29.776Z,11.00
2019-04-21T09:14:36.887Z,13.80
2019-04-21T09:15:36.678Z,15.00
2019-04-21T09:16:42.039Z,14.00
2019-04-21T09:17:43.787Z,14.00
2019-04-21T09:18:45.570Z,13.60
2019-04-21T09:19:59.395Z,12.60
2019-04-21T09:21:10.012Z,13.20
2019-04-21T09:22:08.078Z,15.00
2019-04-21T09:23:06.708Z,17.00
2019-04-21T09:24:16.198Z,14.80
2019-04-21T09:25:29.148Z,14.20
2019-04-21T09:26:26.274Z,17.40
2019-04-21T09:27:27.013Z,16.20
2019-04-21T09:28:25.687Z,14.60
2019-04-21T09:29:30.962Z,13.00
2019-04-21T09:30:24.146Z,13.00
2019-04-21T09:31:31.870Z,13.00
2019-04-21T09:32:34.539Z,14.60
2019-04-21T09:33:41.288Z,17.20
2019-04-21T09:34:44.209Z,12.60
2019-04-21T09:35:49.149Z,11.80
2019-04-21T09:36:58.722Z,13.60
2019-04-21T09:38:01.159Z,13.60
2019-04-21T09:39:08.731Z,15.60
2019-04-21T09:40:06.760Z,12.00
2019-04-21T09:41:14.267Z,13.20
2019-04-21T09:42:18.447Z,13.40
2019-04-21T09:43:30.779Z,11.80
2019-04-21T09:44:30.632Z,14.20
2019-04-21T09:45:28.704Z,16.20
2019-04-21T09:46:35.441Z,16.60
2019-04-21T09:47:42.247Z,15.00
2019-04-21T09:48:49.779Z,14.00
2019-04-21T09:49:45.257Z,10.40
2019-04-21T09:50:48.015Z,10.00
2019-04-21T09:51:50.623Z,8.60
2019-04-21T09:52:58.642Z,10.00
2019-04-21T09:54:05.821Z,12.00
2019-04-21T09:55:08.312Z,8.60
2019-04-21T09:56:14.008Z,13.60
2019-04-21T09:57:22.844Z,11.80
2019-04-21T09:58:23.986Z,11.40
2019-04-21T09:59:26.198Z,11.20
2019-04-21T10:00:27.225Z,10.00
2019-04-21T11:03:53.023Z,7.80
2019-04-21T11:04:56.697Z,7.00
2019-04-21T11:06:03.380Z,6.80
2019-04-21T11:07:13.424Z,7.00
2019-04-21T11:08:23.031Z,7.40
2019-04-21T11:09:17.899Z,8.80
2019-04-21T11:10:20.369Z,8.00
2019-04-21T11:11:23.874Z,7.60
2019-04-21T11:12:26.180Z,7.80
2019-04-21T11:13:30.765Z,8.60
2019-04-21T11:14:33.473Z,8.60
2019-04-21T11:15:37.015Z,10.00
2019-04-21T11:16:41.547Z,7.40
2019-04-21T11:17:45.528Z,9.00
2019-04-21T11:18:48.476Z,7.60
2019-04-21T11:19:52.888Z,10.20
2019-04-21T11:20:55.808Z,7.60
2019-04-21T11:21:59.145Z,9.60
2019-04-21T11:23:03.958Z,9.40
2019-04-21T11:24:06.195Z,8.20
2019-04-21T11:25:09.185Z,13.20
2019-04-21T11:26:13.938Z,9.80
2019-04-21T11:27:17.006Z,9.60
2019-04-21T11:28:20.690Z,7.80
2019-04-21T11:29:23.396Z,7.60
2019-04-21T11:30:25.823Z,6.80
2019-04-21T11:31:29.264Z,9.80
2019-04-21T11:32:32.816Z,7.40
2019-04-21T11:33:35.593Z,8.20
2019-04-21T11:34:39.001Z,8.00
2019-04-21T11:35:41.746Z,8.60
2019-04-21T11:36:48.071Z,10.80
2019-04-21T11:37:50.792Z,7.60
2019-04-21T11:39:16.351Z,10.20
2019-04-21T11:40:10.716Z,5.40
2019-04-21T11:41:12.006Z,5.20
2019-04-21T11:42:17.568Z,8.00
2019-04-21T11:43:21.980Z,8.40
2019-04-21T11:44:24.910Z,9.80
2019-04-21T11:45:34.702Z,6.00
2019-04-21T11:46:36.738Z,11.00
2019-04-21T11:47:42.588Z,6.20
2019-04-21T11:48:46.160Z,8.40
2019-04-21T11:49:49.315Z,7.00
2019-04-21T11:50:55.060Z,10.60
2019-04-21T11:51:58.628Z,10.00
2019-04-21T11:53:03.080Z,7.40
2019-04-21T11:54:06.850Z,6.00
2019-04-21T11:55:09.016Z,10.80
2019-04-21T11:56:12.567Z,7.60
2019-04-21T11:57:23.971Z,9.00
2019-04-21T11:58:22.079Z,6.20
2019-04-21T11:59:25.741Z,7.00
2019-04-21T12:00:29.479Z,8.60
2019-04-21T12:01:33.708Z,9.20
2019-04-21T12:02:37.415Z,14.00
2019-04-21T12:03:39.922Z,7.00
2019-04-21T12:04:43.343Z,7.00
2019-04-21T12:05:47.637Z,9.60
2019-04-21T12:06:52.193Z,8.80
2019-04-21T12:07:58.544Z,8.60
2019-04-21T12:09:02.873Z,9.00
2019-04-21T12:10:06.386Z,11.00
2019-04-21T12:11:09.486Z,8.80
2019-04-21T12:12:11.916Z,12.00
2019-04-21T12:13:14.180Z,9.00
2019-04-21T12:14:16.537Z,9.80
2019-04-21T12:15:19.335Z,10.40
2019-04-21T12:16:23.258Z,10.40
2019-04-21T12:17:25.925Z,6.80
2019-04-21T12:18:29.730Z,10.80
2019-04-21T12:19:32.565Z,7.40
2019-04-21T12:20:35.598Z,9.40
2019-04-21T12:21:49.202Z,8.80
2019-04-21T12:22:43.311Z,7.40
2019-04-21T12:23:45.781Z,9.80
2019-04-21T12:24:49.029Z,9.00
2019-04-21T12:25:51.752Z,10.20
2019-04-21T12:26:54.252Z,13.20
2019-04-21T12:27:56.362Z,12.40
2019-04-21T12:28:59.684Z,14.80
2019-04-21T12:30:05.999Z,12.80
2019-04-21T12:31:11.557Z,9.80
2019-04-21T12:32:24.143Z,10.00
2019-04-21T12:33:34.258Z,15.00
2019-04-21T12:34:36.470Z,9.60
2019-04-21T12:35:40.186Z,13.40
2019-04-21T12:36:44.648Z,14.00
2019-04-21T12:37:47.238Z,12.20
2019-04-21T12:38:55.810Z,12.40
2019-04-21T12:39:54.739Z,13.20
2019-04-21T12:40:57.411Z,12.20
2019-04-21T12:42:00.593Z,12.80
2019-04-21T12:43:02.982Z,12.00
2019-04-21T12:44:06.712Z,11.60
2019-04-21T12:45:10.075Z,13.00
2019-04-21T12:46:13.864Z,11.20
2019-04-21T12:47:16.475Z,11.40
2019-04-21T12:48:20.139Z,16.40
2019-04-21T12:49:22.157Z,11.00
2019-04-21T12:50:25.929Z,12.60
2019-04-21T12:51:30.070Z,12.60
2019-04-21T12:52:35.626Z,14.60
2019-04-21T12:53:39.407Z,20.80
2019-04-21T12:54:43.908Z,13.40
2019-04-21T12:55:47.980Z,19.00
2019-04-21T12:56:52.010Z,21.40
2019-04-21T12:57:55.130Z,13.80
2019-04-21T12:58:59.436Z,10.00
2019-04-21T13:00:06.760Z,13.40
2019-04-21T13:01:12.616Z,12.20
2019-04-21T13:02:15.944Z,11.80
2019-04-21T13:03:20.519Z,12.40
2019-04-21T13:04:21.979Z,12.20
2019-04-21T13:05:25.444Z,13.00
2019-04-21T13:06:28.082Z,11.80
2019-04-21T13:07:31.127Z,14.60
2019-04-21T13:08:46.237Z,11.00
2019-04-21T13:09:40.146Z,12.40
2019-04-21T13:10:44.335Z,16.00
2019-04-21T13:11:47.012Z,14.40
2019-04-21T13:12:52.174Z,22.00
2019-04-21T13:13:55.734Z,23.40
2019-04-21T13:14:59.565Z,16.20
2019-04-21T13:16:03.251Z,18.00
2019-04-21T13:17:05.864Z,15.60
2019-04-21T13:18:08.198Z,14.40
2019-04-21T13:19:15.374Z,11.20
2019-04-21T13:20:19.211Z,12.60
2019-04-21T13:21:22.424Z,10.60
2019-04-21T13:22:24.400Z,13.60
2019-04-21T13:23:29.143Z,11.00
2019-04-21T13:24:33.695Z,11.40
2019-04-21T13:25:36.285Z,12.80
2019-04-21T13:26:47.254Z,11.40
2019-04-21T13:27:45.147Z,11.40
2019-04-21T13:28:52.240Z,16.20
2019-04-21T13:29:55.025Z,13.20
2019-04-21T13:30:58.250Z,17.80
2019-04-21T13:32:03.631Z,11.40
2019-04-21T13:33:05.132Z,11.20
2019-04-21T13:34:08.263Z,12.80
2019-04-21T13:35:14.955Z,12.40
2019-04-21T13:36:19.524Z,10.20
2019-04-21T13:37:23.899Z,15.00
2019-04-21T13:38:35.386Z,13.40
2019-04-21T13:39:55.482Z,15.00
2019-04-21T13:40:56.955Z,12.20
2019-04-21T13:41:57.115Z,13.20
2019-04-21T13:42:55.297Z,13.40
2019-04-21T13:44:13.542Z,10.60
2019-04-21T13:45:18.364Z,13.40
2019-04-21T13:46:21.001Z,12.80
2019-04-21T13:47:24.806Z,11.60
2019-04-21T13:48:26.716Z,11.20
2019-04-21T13:49:29.569Z,11.80
2019-04-21T13:50:33.171Z,11.00
2019-04-21T13:51:36.064Z,12.20
2019-04-21T13:52:38.650Z,11.20
2019-04-21T13:53:43.955Z,10.00
2019-04-21T13:54:47.441Z,11.60
2019-04-21T13:55:50.835Z,18.20
2019-04-21T13:56:54.386Z,14.20
2019-04-21T13:57:56.888Z,13.20
2019-04-21T13:59:00.109Z,15.20
2019-04-21T14:00:05.894Z,13.00
2019-04-21T14:01:09.640Z,14.60
2019-04-21T14:02:12.908Z,10.00
2019-04-21T14:03:16.774Z,12.20
2019-04-21T14:04:19.888Z,12.60
2019-04-21T14:05:22.446Z,13.40
2019-04-21T14:06:26.539Z,14.20
2019-04-21T14:07:30.260Z,13.60
2019-04-21T14:08:33.525Z,11.60
2019-04-21T14:09:43.766Z,10.20
2019-04-21T14:10:39.863Z,9.40
2019-04-21T14:11:43.294Z,14.40
2019-04-21T14:12:46.694Z,11.80
2019-04-21T14:13:50.437Z,12.60
2019-04-21T14:14:54.393Z,12.00
2019-04-21T14:15:58.042Z,11.00
2019-04-21T14:17:00.558Z,9.20
2019-04-21T14:18:04.675Z,13.40
2019-04-21T14:19:07.614Z,12.00
2019-04-21T14:20:10.932Z,12.20
2019-04-21T14:21:15.423Z,10.60
2019-04-21T14:22:20.099Z,16.80
2019-04-21T14:23:31.989Z,13.00
2019-04-21T14:24:27.205Z,13.60
2019-04-21T14:25:29.961Z,11.60
2019-04-21T14:26:32.289Z,15.20
2019-04-21T14:27:36.307Z,16.60
2019-04-21T14:28:38.975Z,16.00
2019-04-21T14:29:41.788Z,16.40
2019-04-21T14:30:44.403Z,12.60
2019-04-21T14:31:48.203Z,14.20
2019-04-21T14:32:51.981Z,17.00
2019-04-21T14:33:54.520Z,13.00
2019-04-21T14:34:57.130Z,10.00
2019-04-21T14:36:00.885Z,11.80
2019-04-21T14:37:04.522Z,12.00
2019-04-21T14:38:08.940Z,10.20
2019-04-21T14:39:12.542Z,15.40
2019-04-21T14:40:20.687Z,13.20
2019-04-21T14:41:20.167Z,10.00
2019-04-21T14:42:22.278Z,14.20
2019-04-21T14:43:24.048Z,15.20
2019-04-21T14:44:27.187Z,14.60
2019-04-21T14:45:32.714Z,12.00
2019-04-21T14:46:44.971Z,14.00
2019-04-21T14:47:54.695Z,14.60
2019-04-21T14:48:59.257Z,15.00
2019-04-21T14:50:09.296Z,13.00
2019-04-21T14:51:31.583Z,12.00
2019-04-21T14:52:35.039Z,11.40
2019-04-21T14:53:56.186Z,13.00
2019-04-21T14:55:00.927Z,11.80
2019-04-21T14:56:03.738Z,13.00
2019-04-21T14:57:07.249Z,16.20
2019-04-21T14:58:09.756Z,14.20
2019-04-21T14:59:12.937Z,14.20
2019-04-21T15:00:19.003Z,16.40
2019-04-21T15:01:21.973Z,13.20
2019-04-21T15:02:25.834Z,12.60
2019-04-21T15:03:29.808Z,10.80
2019-04-21T15:04:33.336Z,14.80
2019-04-21T15:05:37.537Z,13.60
2019-04-21T15:06:39.547Z,12.80
2019-04-21T15:07:41.855Z,13.00
2019-04-21T15:08:44.899Z,14.20
2019-04-21T15:09:58.755Z,13.80
2019-04-21T15:10:52.689Z,13.80
2019-04-21T15:11:56.130Z,11.20
2019-04-21T15:13:01.589Z,11.80
2019-04-21T15:14:04.321Z,13.80
2019-04-21T15:15:07.726Z,13.80
2019-04-21T15:16:11.015Z,11.40
2019-04-21T15:17:16.322Z,13.20
2019-04-21T15:18:18.799Z,13.60
2019-04-21T15:19:22.368Z,11.40
2019-04-21T15:20:26.839Z,11.00
2019-04-21T15:21:33.344Z,12.00
2019-04-21T15:22:36.435Z,13.00
2019-04-21T15:23:38.601Z,14.80
2019-04-21T15:24:44.529Z,17.20
2019-04-21T15:25:48.121Z,14.60
2019-04-21T15:26:53.055Z,19.00
2019-04-21T15:27:55.070Z,17.60
2019-04-21T15:28:59.096Z,13.80
2019-04-21T15:30:02.922Z,13.20
2019-04-21T15:31:08.276Z,13.00
2019-04-21T15:32:12.608Z,12.20
2019-04-21T15:33:16.282Z,12.20
2019-04-21T15:34:19.240Z,11.00
2019-04-21T15:35:24.652Z,8.80
2019-04-21T15:36:27.348Z,12.80
2019-04-21T15:37:31.644Z,11.60
2019-04-21T15:38:35.814Z,13.00
2019-04-21T15:39:40.167Z,14.00
2019-04-21T15:40:50.338Z,10.80
2019-04-21T15:41:48.352Z,11.00
2019-04-21T15:42:50.643Z,10.00
2019-04-21T15:43:54.497Z,13.00
2019-04-21T15:44:56.850Z,11.80
2019-04-21T15:45:58.949Z,9.80
2019-04-21T15:47:03.879Z,10.60
2019-04-21T15:48:07.758Z,14.00
2019-04-21T15:49:11.285Z,12.00
2019-04-21T15:50:17.738Z,9.80
2019-04-21T15:51:19.855Z,13.00
2019-04-21T15:52:23.434Z,15.00
2019-04-21T15:53:30.007Z,14.20
2019-04-21T15:54:32.431Z,14.80
2019-04-21T15:55:34.904Z,19.40
2019-04-21T15:56:46.842Z,14.00
2019-04-21T15:57:52.290Z,20.60
2019-04-21T15:59:04.358Z,15.80
2019-04-21T16:00:13.011Z,18.80
2019-04-21T16:01:23.119Z,18.00
2019-04-21T16:02:40.547Z,13.60
2019-04-21T16:03:42.906Z,12.20
2019-04-21T16:04:46.493Z,12.20
2019-04-21T16:05:50.541Z,14.80
2019-04-21T16:06:53.450Z,20.40
2019-04-21T16:07:56.181Z,13.40
2019-04-21T16:09:00.943Z,15.00
2019-04-21T16:10:08.509Z,12.20
2019-04-21T16:11:11.367Z,13.40
2019-04-21T16:12:15.919Z,13.00
2019-04-21T16:13:19.345Z,16.00
2019-04-21T16:14:22.782Z,14.40
2019-04-21T16:15:26.294Z,12.00
2019-04-21T16:16:30.888Z,13.60
2019-04-21T16:17:35.234Z,13.20
2019-04-21T16:18:38.393Z,13.80